createdAt,value
2022-12-20T00:02:14.611Z,98133.00
2022-12-20T00:06:15.834Z,98127.00
2022-12-20T00:10:16.974Z,98113.00
2022-12-20T00:14:18.160Z,98113.00
2022-12-20T00:18:19.197Z,98113.00
2022-12-20T00:22:20.400Z,98123.00
2022-12-20T00:26:25.655Z,98122.00
2022-12-20T00:30:27.177Z,98093.00
2022-12-20T00:34:28.571Z,98104.00
2022-12-20T00:38:29.902Z,98075.00
2022-12-20T00:42:31.284Z,98074.00
2022-12-20T00:46:33.843Z,98085.00
2022-12-20T00:50:35.096Z,98082.00
2022-12-20T00:54:36.337Z,98091.00
2022-12-20T00:58:40.225Z,98083.00
2022-12-20T01:02:44.511Z,98073.00
2022-12-20T01:06:45.851Z,98074.00
2022-12-20T01:10:49.805Z,98080.00
2022-12-20T01:14:51.208Z,98089.00
2022-12-20T01:18:58.217Z,98082.00
2022-12-20T01:22:59.487Z,98090.00
2022-12-20T01:27:00.663Z,98086.00
2022-12-20T01:31:02.133Z,98094.00
2022-12-20T01:35:05.499Z,98098.00
2022-12-20T01:39:15.471Z,98097.00
2022-12-20T01:43:17.604Z,98091.00
2022-12-20T01:47:18.834Z,98092.00
2022-12-20T01:51:21.843Z,98098.00
2022-12-20T01:55:25.778Z,98077.00
2022-12-20T01:59:28.200Z,98073.00
2022-12-20T02:03:32.296Z,98081.00
2022-12-20T02:07:37.212Z,98058.00
2022-12-20T02:12:00.157Z,98054.00
2022-12-20T02:16:03.462Z,98039.00
2022-12-20T02:20:24.540Z,98029.00
2022-12-20T02:24:35.054Z,98018.00
2022-12-20T02:28:58.203Z,98026.00
2022-12-20T02:33:05.929Z,98017.00
2022-12-20T02:37:07.174Z,98026.00
2022-12-20T02:41:21.305Z,98026.00
2022-12-20T02:45:28.029Z,98024.00
2022-12-20T02:49:32.858Z,98006.00
2022-12-20T02:53:35.664Z,98017.00
2022-12-20T02:57:53.305Z,98012.00
2022-12-20T03:01:55.086Z,98014.00
2022-12-20T03:05:58.410Z,98023.00
2022-12-20T03:09:59.563Z,98026.00
2022-12-20T03:14:00.648Z,98030.00
2022-12-20T03:18:02.477Z,98035.00
2022-12-20T03:22:03.589Z,98063.00
2022-12-20T03:26:04.948Z,98050.00
2022-12-20T03:30:07.126Z,98048.00
2022-12-20T03:34:08.332Z,98048.00
2022-12-20T03:38:09.384Z,98059.00
2022-12-20T03:42:10.516Z,98039.00
2022-12-20T03:46:11.640Z,98018.00
2022-12-20T03:50:13.225Z,98003.00
2022-12-20T03:54:14.338Z,97996.00
2022-12-20T03:58:15.461Z,97999.00
2022-12-20T04:02:16.748Z,98021.00
2022-12-20T04:06:18.758Z,98029.00
2022-12-20T04:10:19.885Z,98049.00
2022-12-20T04:14:20.869Z,98049.00
2022-12-20T04:18:21.991Z,98041.00
2022-12-20T04:22:23.092Z,98015.00
2022-12-20T04:26:24.414Z,98015.00
2022-12-20T04:30:25.560Z,98007.00
2022-12-20T04:34:26.716Z,98008.00
2022-12-20T04:38:28.026Z,97995.00
2022-12-20T04:42:29.129Z,97989.00
2022-12-20T04:46:30.314Z,97986.00
2022-12-20T04:50:31.346Z,97987.00
2022-12-20T04:54:32.519Z,98004.00
2022-12-20T04:58:33.635Z,97997.00
2022-12-20T05:02:34.890Z,98000.00
2022-12-20T05:06:38.086Z,98007.00
2022-12-20T05:10:39.205Z,97991.00
2022-12-20T05:14:40.345Z,97984.00
2022-12-20T05:18:48.190Z,97989.00
2022-12-20T05:23:02.608Z,97993.00
2022-12-20T05:27:03.757Z,97987.00
2022-12-20T05:31:05.164Z,97992.00
2022-12-20T05:35:07.227Z,97984.00
2022-12-20T05:39:08.257Z,97970.00
2022-12-20T05:43:09.482Z,97967.00
2022-12-20T05:47:10.653Z,97968.00
2022-12-20T05:51:11.719Z,97963.00
2022-12-20T05:55:13.100Z,97951.00
2022-12-20T05:59:14.041Z,97938.00
2022-12-20T06:03:15.721Z,97927.00
2022-12-20T06:07:18.153Z,97939.00
2022-12-20T06:11:21.972Z,97948.00
2022-12-20T06:15:22.014Z,97939.00
2022-12-20T06:19:23.105Z,97945.00
2022-12-20T06:23:24.259Z,97944.00
2022-12-20T06:27:25.519Z,97949.00
2022-12-20T06:31:27.520Z,97932.00
2022-12-20T06:35:29.397Z,97937.00
2022-12-20T06:39:30.386Z,97950.00
2022-12-20T06:43:31.470Z,97950.00
2022-12-20T06:47:32.804Z,97937.00
2022-12-20T06:51:33.906Z,97942.00
2022-12-20T06:55:35.012Z,97954.00
2022-12-20T06:59:36.089Z,97953.00
2022-12-20T07:03:37.281Z,97947.00
2022-12-20T07:07:44.504Z,97945.00
2022-12-20T07:11:42.759Z,97943.00
2022-12-20T07:15:44.860Z,97936.00
2022-12-20T07:19:50.777Z,97934.00
2022-12-20T07:23:48.979Z,97938.00
2022-12-20T07:27:50.413Z,97936.00
2022-12-20T07:31:54.284Z,97939.00
2022-12-20T07:36:06.500Z,97924.00
2022-12-20T07:40:09.114Z,97915.00
2022-12-20T07:44:11.828Z,97919.00
2022-12-20T07:48:19.763Z,97910.00
2022-12-20T07:52:20.283Z,97902.00
2022-12-20T07:56:22.364Z,97915.00
2022-12-20T08:00:24.408Z,97905.00
2022-12-20T08:04:30.060Z,97906.00
2022-12-20T08:08:38.125Z,97802.00
2022-12-20T08:12:41.545Z,97914.00
2022-12-20T08:16:43.401Z,97904.00
2022-12-20T08:20:44.611Z,97901.00
2022-12-20T08:24:46.353Z,97902.00
2022-12-20T08:28:47.578Z,97904.00
2022-12-20T08:32:48.886Z,97903.00
2022-12-20T08:36:50.152Z,97896.00
2022-12-20T08:40:51.325Z,97885.00
2022-12-20T08:44:52.509Z,97880.00
2022-12-20T08:48:53.557Z,97882.00
2022-12-20T08:52:54.719Z,97894.00
2022-12-20T08:56:55.878Z,97894.00
2022-12-20T09:01:06.419Z,97894.00
2022-12-20T09:05:05.750Z,97882.00
2022-12-20T09:09:07.312Z,97896.00
2022-12-20T09:13:09.362Z,97891.00
2022-12-20T09:17:12.400Z,97872.00
2022-12-20T09:21:13.734Z,97879.00
2022-12-20T09:25:16.609Z,97887.00
2022-12-20T09:29:24.976Z,97892.00
2022-12-20T09:33:21.128Z,97871.00
2022-12-20T09:37:23.853Z,97875.00
2022-12-20T09:41:40.095Z,97867.00
2022-12-20T09:45:41.853Z,97875.00
2022-12-20T09:49:46.522Z,97865.00
2022-12-20T09:54:08.202Z,97866.00
2022-12-20T09:58:35.559Z,97850.00
2022-12-20T10:02:57.038Z,97848.00
2022-12-20T10:06:58.687Z,97852.00
2022-12-20T10:11:03.586Z,97851.00
2022-12-20T10:15:26.835Z,97861.00
2022-12-20T10:19:33.566Z,97838.00
2022-12-20T10:23:50.641Z,97842.00
2022-12-20T10:27:56.274Z,97841.00
2022-12-20T10:32:00.229Z,97844.00
2022-12-20T10:36:23.871Z,97843.00
2022-12-20T10:40:46.587Z,97817.00
2022-12-20T10:44:32.264Z,97829.00
2022-12-20T10:48:41.519Z,97830.00
2022-12-20T10:52:44.456Z,97797.00
2022-12-20T10:56:49.447Z,97789.00
2022-12-20T11:00:50.746Z,97801.00
2022-12-20T11:05:14.093Z,97788.00
2022-12-20T11:09:31.045Z,97783.00
2022-12-20T11:13:32.198Z,97776.00
2022-12-20T11:17:39.944Z,97782.00
2022-12-20T11:21:56.658Z,97773.00
2022-12-20T11:26:24.162Z,97785.00
2022-12-20T11:30:28.394Z,97782.00
2022-12-20T11:34:50.025Z,97773.00
2022-12-20T11:39:00.978Z,97768.00
2022-12-20T11:43:23.803Z,97770.00
2022-12-20T11:47:32.057Z,97754.00
2022-12-20T11:51:42.966Z,97704.00
2022-12-20T11:55:48.746Z,97739.00
2022-12-20T11:59:56.985Z,97735.00
2022-12-20T12:04:11.098Z,97732.00
2022-12-20T12:08:18.687Z,97732.00
2022-12-20T12:12:29.259Z,97726.00
2022-12-20T12:16:34.405Z,97726.00
2022-12-20T12:20:51.398Z,97713.00
2022-12-20T12:24:56.582Z,97726.00
2022-12-20T12:29:00.165Z,97727.00
2022-12-20T12:33:07.506Z,97723.00
2022-12-20T12:37:34.420Z,97712.00
2022-12-20T12:41:54.412Z,97695.00
2022-12-20T12:45:59.116Z,97702.00
2022-12-20T12:50:02.873Z,97699.00
2022-12-20T12:54:25.642Z,97696.00
2022-12-20T12:58:34.199Z,97685.00
2022-12-20T13:02:40.718Z,97667.00
2022-12-20T13:06:46.276Z,97686.00
2022-12-20T13:10:53.516Z,97665.00
2022-12-20T13:14:54.671Z,97660.00
2022-12-20T13:19:01.180Z,97665.00
2022-12-20T13:23:12.306Z,97662.00
2022-12-20T13:27:25.675Z,97658.00
2022-12-20T13:31:30.134Z,97666.00
2022-12-20T13:35:34.408Z,97672.00
2022-12-20T13:39:36.977Z,97660.00
2022-12-20T13:43:44.386Z,97660.00
2022-12-20T13:47:49.407Z,97676.00
2022-12-20T13:52:12.841Z,97677.00
2022-12-20T13:56:29.981Z,97669.00
2022-12-20T14:00:31.275Z,97674.00
2022-12-20T14:04:44.752Z,97666.00
2022-12-20T14:08:48.472Z,97663.00
2022-12-20T14:12:54.001Z,97668.00
2022-12-20T14:16:55.231Z,97655.00
2022-12-20T14:20:59.455Z,97647.00
2022-12-20T14:25:02.218Z,97645.00
2022-12-20T14:29:07.510Z,97622.00
2022-12-20T14:33:38.599Z,97625.00
2022-12-20T14:37:40.563Z,97621.00
2022-12-20T14:41:44.255Z,97628.00
2022-12-20T14:45:45.449Z,97640.00
2022-12-20T14:49:56.232Z,97641.00
2022-12-20T14:53:59.167Z,97631.00
2022-12-20T14:58:00.933Z,97640.00
2022-12-20T15:02:22.660Z,97633.00
2022-12-20T15:06:39.833Z,97625.00
2022-12-20T15:11:12.465Z,97634.00
2022-12-20T15:15:28.881Z,97621.00
2022-12-20T15:19:18.277Z,97609.00
2022-12-20T15:23:21.105Z,97613.00
2022-12-20T15:27:23.841Z,97603.00
2022-12-20T15:31:32.915Z,97607.00
2022-12-20T15:35:30.528Z,97589.00
2022-12-20T15:39:32.633Z,97592.00
2022-12-20T15:43:38.961Z,97578.00
2022-12-20T15:47:40.238Z,97595.00
2022-12-20T15:51:43.755Z,97609.00
2022-12-20T15:55:44.982Z,97601.00
2022-12-20T16:00:03.403Z,97601.00
2022-12-20T16:03:49.824Z,97600.00
2022-12-20T16:07:51.339Z,97604.00
2022-12-20T16:11:52.676Z,97596.00
2022-12-20T16:15:53.829Z,97584.00
2022-12-20T16:19:54.842Z,97588.00
2022-12-20T16:23:56.230Z,97598.00
2022-12-20T16:27:57.311Z,97610.00
2022-12-20T16:31:58.437Z,97599.00
2022-12-20T16:35:59.578Z,97606.00
2022-12-20T16:40:00.729Z,97603.00
2022-12-20T16:44:03.109Z,97599.00
2022-12-20T16:48:04.348Z,97600.00
2022-12-20T16:52:06.258Z,97609.00
2022-12-20T16:56:07.848Z,97599.00
2022-12-20T17:00:13.291Z,97596.00
2022-12-20T17:04:17.031Z,97610.00
2022-12-20T17:12:37.175Z,97602.00
2022-12-20T17:16:38.846Z,97598.00
2022-12-20T17:20:40.726Z,97591.00
2022-12-20T17:24:42.291Z,97586.00
2022-12-20T17:28:43.616Z,97573.00
2022-12-20T17:32:45.594Z,97565.00
2022-12-20T17:36:48.483Z,97581.00
2022-12-20T17:40:49.537Z,97588.00
2022-12-20T17:44:50.667Z,97577.00
2022-12-20T17:48:52.342Z,97563.00
2022-12-20T17:52:54.151Z,97553.00
2022-12-20T17:56:57.393Z,97550.00
2022-12-20T18:00:58.687Z,97556.00
2022-12-20T18:04:59.823Z,97559.00
2022-12-20T18:09:01.053Z,97547.00
2022-12-20T18:13:02.478Z,97538.00
2022-12-20T18:17:03.933Z,97524.00
2022-12-20T18:21:07.683Z,97532.00
2022-12-20T18:25:09.917Z,97528.00
2022-12-20T18:29:11.160Z,97538.00
2022-12-20T18:33:12.625Z,97540.00
2022-12-20T18:37:14.297Z,97548.00
2022-12-20T18:41:18.551Z,97550.00
2022-12-20T18:45:20.148Z,97551.00
2022-12-20T18:49:21.331Z,97538.00
2022-12-20T18:53:24.360Z,97537.00
2022-12-20T18:57:26.001Z,97545.00
2022-12-20T19:01:31.100Z,97534.00
2022-12-20T19:05:33.304Z,97540.00
2022-12-20T19:09:34.722Z,97551.00
2022-12-20T19:13:36.571Z,97549.00
2022-12-20T19:17:37.843Z,97535.00
2022-12-20T19:21:41.410Z,97533.00
2022-12-20T19:25:42.956Z,97534.00
2022-12-20T19:29:44.335Z,97533.00
2022-12-20T19:33:47.127Z,97535.00
2022-12-20T19:37:48.382Z,97523.00
2022-12-20T19:42:21.793Z,97526.00
2022-12-20T19:45:55.259Z,97518.00
2022-12-20T19:49:56.606Z,97523.00
2022-12-20T19:53:58.859Z,97527.00
2022-12-20T19:58:00.115Z,97530.00
2022-12-20T20:02:01.687Z,97533.00
2022-12-20T20:06:04.279Z,97529.00
2022-12-20T20:10:06.590Z,97531.00
2022-12-20T20:14:09.811Z,97527.00
2022-12-20T20:18:12.763Z,97533.00
2022-12-20T20:22:20.877Z,97539.00
2022-12-20T20:26:20.849Z,97533.00
2022-12-20T20:30:22.084Z,97537.00
2022-12-20T20:34:23.311Z,97527.00
2022-12-20T20:38:25.241Z,97533.00
2022-12-20T20:42:26.796Z,97528.00
2022-12-20T20:46:28.265Z,97518.00
2022-12-20T20:50:31.472Z,97525.00
2022-12-20T20:54:32.771Z,97524.00
2022-12-20T20:58:34.745Z,97520.00
2022-12-20T21:02:35.903Z,97523.00
2022-12-20T21:06:41.448Z,97521.00
2022-12-20T21:10:42.306Z,97511.00
2022-12-20T21:15:20.839Z,97515.00
2022-12-20T21:18:53.065Z,97511.00
2022-12-20T21:22:54.436Z,97496.00
2022-12-20T21:26:55.635Z,97510.00
2022-12-20T21:31:06.075Z,97498.00
2022-12-20T21:35:07.859Z,97496.00
2022-12-20T21:39:13.002Z,97489.00
2022-12-20T21:43:14.193Z,97485.00
2022-12-20T21:47:15.339Z,97487.00
2022-12-20T21:51:19.087Z,97474.00
2022-12-20T21:55:20.458Z,97477.00
2022-12-20T21:59:22.112Z,97470.00
2022-12-20T22:03:24.240Z,97472.00
2022-12-20T22:07:25.628Z,97460.00
2022-12-20T22:11:27.610Z,97468.00
2022-12-20T22:15:30.222Z,97454.00
2022-12-20T22:19:31.289Z,97463.00
2022-12-20T22:23:32.739Z,97460.00
2022-12-20T22:27:34.251Z,97459.00
2022-12-20T22:31:36.412Z,97456.00
2022-12-20T22:35:37.538Z,97449.00
2022-12-20T22:39:38.505Z,97454.00
2022-12-20T22:43:40.523Z,97449.00
2022-12-20T22:47:42.352Z,97450.00
2022-12-20T22:51:43.319Z,97448.00
2022-12-20T22:55:44.452Z,97452.00
2022-12-20T22:59:45.419Z,97441.00
2022-12-20T23:03:47.326Z,97440.00
2022-12-20T23:07:48.509Z,97441.00
2022-12-20T23:12:08.001Z,97443.00
2022-12-20T23:16:11.979Z,97435.00
2022-12-20T23:20:31.349Z,97437.00
2022-12-20T23:24:32.617Z,97433.00
2022-12-20T23:28:33.731Z,97427.00
2022-12-20T23:32:35.236Z,97433.00
2022-12-20T23:36:48.404Z,97432.00
2022-12-20T23:40:49.588Z,97436.00
2022-12-20T23:44:50.683Z,97424.00
2022-12-20T23:48:52.605Z,97430.00
2022-12-20T23:52:53.583Z,97416.00
2022-12-20T23:56:54.625Z,97435.00
